Time;durP1;ratioP1;P1;durP2;ratioP2;P2;SDS_P1;SDS_P2;PMS_P1;PMS_P2;Temp;Humidity;BMP_temperature;BMP_pressure;BME280_temperature;BME280_humidity;BME280_pressure;Samples;Min_cycle;Max_cycle;Signal;HPM_P1;HPM_P2
2023/08/09 00:00:07;;;;;;;5.60;3.20;;;23.80;45.70;;;;;;4973099;28;20450;-79
2023/08/09 00:02:35;;;;;;;3.07;2.70;;;23.80;45.80;;;;;;4976211;28;20456;-78
2023/08/09 00:05:05;;;;;;;4.00;3.03;;;23.80;45.80;;;;;;4977807;28;20413;-78
2023/08/09 00:07:33;;;;;;;4.30;3.60;;;23.70;45.70;;;;;;4972770;28;20425;-78
2023/08/09 00:10:01;;;;;;;4.23;3.40;;;23.70;45.80;;;;;;4972413;28;20433;-78
2023/08/09 00:12:31;;;;;;;3.27;2.97;;;23.70;45.70;;;;;;4973769;28;20505;-78
2023/08/09 00:14:59;;;;;;;3.70;2.80;;;23.70;45.80;;;;;;4981038;28;20484;-78
2023/08/09 00:17:27;;;;;;;3.47;3.17;;;23.70;45.80;;;;;;4980217;28;20502;-78
2023/08/09 00:19:56;;;;;;;5.20;3.00;;;23.60;45.80;;;;;;4972684;28;20549;-78
2023/08/09 00:22:26;;;;;;;3.10;2.77;;;23.70;45.90;;;;;;4975679;28;20432;-78
2023/08/09 00:24:54;;;;;;;5.53;3.47;;;23.60;45.60;;;;;;4972371;28;20425;-78
2023/08/09 00:27:21;;;;;;;2.87;2.67;;;23.60;45.90;;;;;;4979913;28;20445;-78
2023/08/09 00:29:49;;;;;;;3.93;2.87;;;23.60;45.90;;;;;;4972472;28;20456;-78
2023/08/09 00:32:17;;;;;;;4.10;2.70;;;23.50;45.80;;;;;;4977605;28;21027;-78
2023/08/09 00:34:45;;;;;;;11.40;7.60;;;23.50;45.70;;;;;;4973276;28;20532;-78
2023/08/09 00:37:13;;;;;;;13.10;9.17;;;23.50;46.50;;;;;;4975192;28;20826;-78
2023/08/09 00:39:42;;;;;;;14.43;10.43;;;23.50;45.90;;;;;;4973179;28;20505;-78
2023/08/09 00:42:10;;;;;;;13.10;8.33;;;23.50;45.90;;;;;;4972529;28;20893;-78
2023/08/09 00:44:39;;;;;;;13.20;9.30;;;23.50;46.00;;;;;;4976419;28;20433;-78
2023/08/09 00:47:07;;;;;;;16.77;10.43;;;23.50;46.00;;;;;;4972434;28;20474;-78
2023/08/09 00:49:35;;;;;;;18.40;11.13;;;23.40;45.80;;;;;;4971726;28;20425;-78
2023/08/09 00:52:03;;;;;;;17.37;11.80;;;23.40;46.00;;;;;;4971858;28;20469;-78
2023/08/09 00:54:31;;;;;;;24.57;15.40;;;23.40;45.90;;;;;;4971299;28;20553;-79
2023/08/09 00:57:00;;;;;;;19.50;12.60;;;23.40;45.90;;;;;;4971715;28;20546;-79
2023/08/09 00:59:29;;;;;;;23.17;13.70;;;23.40;46.00;;;;;;4968996;28;20498;-79
2023/08/09 01:01:56;;;;;;;21.37;14.30;;;23.40;46.00;;;;;;4971416;28;20493;-78
2023/08/09 01:04:24;;;;;;;22.90;14.60;;;23.30;46.00;;;;;;4971874;28;20533;-77
2023/08/09 01:06:56;;;;;;;23.37;15.50;;;23.30;46.10;;;;;;4972263;28;20535;-78
2023/08/09 01:09:27;;;;;;;22.90;15.07;;;23.30;46.00;;;;;;4971220;28;20450;-78
2023/08/09 01:11:57;;;;;;;25.40;15.77;;;23.30;46.10;;;;;;4972317;28;20448;-78
2023/08/09 01:14:27;;;;;;;26.03;16.97;;;23.30;46.00;;;;;;4976712;28;20451;-78
2023/08/09 01:16:55;;;;;;;23.23;15.50;;;23.30;46.10;;;;;;4978978;28;21076;-78
2023/08/09 01:19:30;;;;;;;24.90;14.83;;;23.30;46.20;;;;;;4970788;28;20797;-78
2023/08/09 01:21:58;;;;;;;24.90;15.23;;;23.30;46.10;;;;;;4966356;28;20540;-79
2023/08/09 01:24:27;;;;;;;24.50;16.70;;;23.20;46.10;;;;;;4975846;28;20434;-77
2023/08/09 01:26:56;;;;;;;24.80;16.40;;;23.20;46.00;;;;;;4970711;28;20536;-78
2023/08/09 01:29:24;;;;;;;25.87;16.57;;;23.20;46.20;;;;;;4978842;28;20445;-78
2023/08/09 01:31:51;;;;;;;28.13;17.00;;;23.20;46.10;;;;;;4972588;28;20922;-78
2023/08/09 01:34:19;;;;;;;27.67;16.90;;;23.20;46.10;;;;;;4974895;28;20529;-78
2023/08/09 01:36:48;;;;;;;23.00;15.73;;;23.20;46.10;;;;;;4975447;28;20473;-78
2023/08/09 01:39:19;;;;;;;24.40;16.00;;;23.20;46.20;;;;;;4975649;28;20852;-78
2023/08/09 01:41:49;;;;;;;27.57;16.93;;;23.20;46.10;;;;;;4975899;28;20956;-77
2023/08/09 01:44:17;;;;;;;24.77;16.50;;;23.10;46.00;;;;;;4973091;28;20449;-79
2023/08/09 01:46:45;;;;;;;25.37;16.30;;;23.10;46.00;;;;;;4976871;28;20530;-79
2023/08/09 01:49:14;;;;;;;24.90;16.70;;;23.10;46.10;;;;;;4975005;28;21005;-78
2023/08/09 01:51:42;;;;;;;23.97;15.27;;;23.10;46.00;;;;;;4975463;28;20497;-78
2023/08/09 01:54:11;;;;;;;25.50;16.10;;;23.10;46.30;;;;;;4975065;28;20537;-79
2023/08/09 01:56:40;;;;;;;26.37;16.30;;;23.10;46.20;;;;;;4975121;28;20520;-78
2023/08/09 01:59:09;;;;;;;22.70;14.70;;;23.10;46.30;;;;;;4975253;28;20497;-79
2023/08/09 02:01:37;;;;;;;27.63;15.73;;;23.00;46.30;;;;;;4976259;28;20469;-78
2023/08/09 02:04:09;;;;;;;25.50;16.50;;;23.00;46.20;;;;;;4975074;28;20975;-76
2023/08/09 02:06:38;;;;;;;27.83;17.03;;;23.00;46.30;;;;;;4975003;28;20485;-78
2023/08/09 02:09:07;;;;;;;22.87;16.17;;;23.00;46.30;;;;;;4975251;28;20434;-78
2023/08/09 02:11:35;;;;;;;25.17;16.07;;;23.00;46.30;;;;;;4976046;28;20532;-78
2023/08/09 02:14:03;;;;;;;23.63;15.27;;;23.00;46.40;;;;;;4971574;28;20475;-79
2023/08/09 02:16:33;;;;;;;23.73;15.23;;;23.00;46.30;;;;;;4975139;28;20535;-78
2023/08/09 02:19:01;;;;;;;24.53;15.30;;;22.90;46.30;;;;;;4974771;28;20434;-79
2023/08/09 02:21:29;;;;;;;22.53;15.43;;;22.90;46.40;;;;;;4974921;28;20544;-78
2023/08/09 02:23:57;;;;;;;25.60;15.47;;;22.90;46.30;;;;;;4974736;28;20458;-78
2023/08/09 02:26:26;;;;;;;23.33;14.93;;;22.90;46.40;;;;;;4972384;28;21029;-78
2023/08/09 02:28:54;;;;;;;21.87;14.57;;;22.90;46.30;;;;;;4974431;28;20451;-78
2023/08/09 02:31:22;;;;;;;22.30;14.43;;;22.90;46.40;;;;;;4974509;28;20543;-78
2023/08/09 02:33:51;;;;;;;21.53;14.80;;;22.90;46.30;;;;;;4974960;28;20477;-79
2023/08/09 02:36:19;;;;;;;22.53;14.67;;;22.90;46.40;;;;;;4975055;28;20470;-78
2023/08/09 02:38:47;;;;;;;19.93;14.03;;;22.90;46.40;;;;;;4974459;28;20453;-76
2023/08/09 02:41:15;;;;;;;20.97;14.00;;;22.80;46.30;;;;;;4974343;28;20996;-78
2023/08/09 02:43:44;;;;;;;21.43;14.73;;;22.80;46.40;;;;;;4973157;28;20439;-76
2023/08/09 02:46:12;;;;;;;22.20;14.37;;;22.80;46.50;;;;;;4973768;28;20496;-78
2023/08/09 02:48:40;;;;;;;19.50;13.87;;;22.80;46.50;;;;;;4974371;28;20447;-78
2023/08/09 02:51:09;;;;;;;22.03;14.10;;;22.80;46.40;;;;;;4966511;28;20553;-78
2023/08/09 02:53:41;;;;;;;19.87;13.03;;;22.80;46.60;;;;;;4974125;28;20442;-79
2023/08/09 02:56:08;;;;;;;21.60;14.23;;;22.80;46.50;;;;;;4966844;28;20469;-78
2023/08/09 02:58:36;;;;;;;18.70;12.53;;;22.80;46.60;;;;;;4974103;28;20438;-78
2023/08/09 03:01:05;;;;;;;19.93;12.40;;;22.70;46.50;;;;;;4972865;28;20581;-78
2023/08/09 03:03:33;;;;;;;18.40;13.00;;;22.70;46.50;;;;;;4977850;28;20529;-78
2023/08/09 03:06:00;;;;;;;20.40;13.57;;;22.70;46.50;;;;;;4979469;28;20469;-78
2023/08/09 03:08:31;;;;;;;18.07;12.20;;;22.70;46.60;;;;;;4973936;28;20884;-78
2023/08/09 03:10:58;;;;;;;17.97;12.43;;;22.70;46.60;;;;;;4980220;28;20528;-78
2023/08/09 03:13:26;;;;;;;18.33;11.77;;;22.70;46.60;;;;;;4981456;28;20453;-78
2023/08/09 03:15:55;;;;;;;21.17;12.83;;;22.70;46.50;;;;;;4973944;28;20438;-78
2023/08/09 03:18:23;;;;;;;16.60;11.20;;;22.60;46.60;;;;;;4973130;28;20509;-78
2023/08/09 03:20:52;;;;;;;18.70;12.40;;;22.60;46.50;;;;;;4972918;28;20556;-77
2023/08/09 03:23:20;;;;;;;20.30;12.63;;;22.60;46.60;;;;;;4973786;28;20443;-78
2023/08/09 03:25:50;;;;;;;18.30;11.10;;;22.60;46.70;;;;;;4980514;28;20442;-77
2023/08/09 03:28:17;;;;;;;17.70;11.57;;;22.60;46.60;;;;;;4979128;28;20532;-77
2023/08/09 03:30:46;;;;;;;17.27;11.30;;;22.60;46.80;;;;;;4977316;28;20524;-78
2023/08/09 03:33:14;;;;;;;14.23;10.33;;;22.60;46.60;;;;;;4976787;28;20540;-77
2023/08/09 03:35:42;;;;;;;17.30;10.80;;;22.50;46.60;;;;;;4973794;28;20571;-77
2023/08/09 03:38:10;;;;;;;18.30;10.50;;;22.50;46.50;;;;;;4978888;28;20480;-76
2023/08/09 03:40:38;;;;;;;13.60;10.37;;;22.50;46.70;;;;;;4973956;28;20509;-77
2023/08/09 03:43:07;;;;;;;16.40;10.70;;;22.50;46.70;;;;;;4982079;28;20518;-77
2023/08/09 03:45:36;;;;;;;14.90;11.00;;;22.50;46.70;;;;;;4979865;28;20457;-78
2023/08/09 03:48:05;;;;;;;14.50;10.57;;;22.50;46.80;;;;;;4974309;28;20475;-78
2023/08/09 03:50:32;;;;;;;17.33;10.47;;;22.50;46.70;;;;;;4973246;28;20436;-78
2023/08/09 03:53:01;;;;;;;14.40;9.70;;;22.40;46.60;;;;;;4973421;28;20466;-78
2023/08/09 03:55:29;;;;;;;15.30;10.40;;;22.40;46.70;;;;;;4971836;28;20428;-76
2023/08/09 03:57:57;;;;;;;13.77;9.23;;;22.40;46.80;;;;;;4964923;28;20517;-78
2023/08/09 04:00:26;;;;;;;13.37;9.60;;;22.40;46.70;;;;;;4977753;28;20532;-78
2023/08/09 04:02:54;;;;;;;13.53;9.10;;;22.40;46.70;;;;;;4974687;28;20547;-78
2023/08/09 04:05:23;;;;;;;13.50;10.10;;;22.40;46.70;;;;;;4979737;28;20505;-78
2023/08/09 04:07:51;;;;;;;14.37;9.80;;;22.30;46.60;;;;;;4974194;28;20452;-78
2023/08/09 04:10:19;;;;;;;14.83;9.70;;;22.40;46.90;;;;;;4977385;28;20517;-78
2023/08/09 04:12:47;;;;;;;14.57;9.30;;;22.40;46.70;;;;;;4975251;28;20555;-77
2023/08/09 04:15:15;;;;;;;13.90;9.23;;;22.30;46.80;;;;;;4966882;28;20541;-78
2023/08/09 04:17:48;;;;;;;12.77;9.43;;;22.30;46.80;;;;;;4976590;28;20470;-78
2023/08/09 04:20:17;;;;;;;12.47;8.50;;;22.30;46.70;;;;;;4976021;28;20544;-78
2023/08/09 04:22:44;;;;;;;15.77;9.80;;;22.30;46.70;;;;;;4983183;28;20500;-78
2023/08/09 04:25:12;;;;;;;12.00;8.83;;;22.30;46.80;;;;;;4972548;28;20511;-78
2023/08/09 04:27:41;;;;;;;12.30;8.40;;;22.30;46.80;;;;;;4980839;28;20451;-78
2023/08/09 04:30:10;;;;;;;12.73;8.80;;;22.30;46.70;;;;;;4971123;28;20452;-77
2023/08/09 04:32:38;;;;;;;12.20;8.57;;;22.30;46.90;;;;;;4969953;28;20546;-78
2023/08/09 04:35:09;;;;;;;12.50;8.47;;;22.30;46.70;;;;;;4972092;28;20447;-77
2023/08/09 04:37:37;;;;;;;11.30;8.07;;;22.30;46.70;;;;;;4972259;28;20470;-78
2023/08/09 04:40:10;;;;;;;9.87;7.90;;;22.30;46.70;;;;;;4973366;28;20458;-78
2023/08/09 04:42:40;;;;;;;10.97;8.00;;;22.30;46.80;;;;;;4969098;28;20508;-78
2023/08/09 04:45:09;;;;;;;9.50;7.13;;;22.30;46.60;;;;;;4981492;28;20498;-78
2023/08/09 04:47:37;;;;;;;10.00;7.33;;;22.30;46.80;;;;;;4977131;28;20437;-78
2023/08/09 04:50:07;;;;;;;12.63;8.57;;;22.30;46.80;;;;;;4971761;28;20505;-78
2023/08/09 04:52:35;;;;;;;9.03;7.20;;;22.30;46.70;;;;;;4967407;28;20458;-78
2023/08/09 04:55:04;;;;;;;10.20;7.47;;;22.30;46.50;;;;;;4969170;28;20462;-78
2023/08/09 04:57:32;;;;;;;9.97;7.90;;;22.30;46.70;;;;;;4975604;28;20478;-79
2023/08/09 05:00:06;;;;;;;11.43;7.70;;;22.30;46.60;;;;;;4971963;28;20442;-78
2023/08/09 05:02:36;;;;;;;9.73;7.70;;;22.30;46.70;;;;;;4974301;28;20464;-78
2023/08/09 05:05:04;;;;;;;10.33;7.50;;;22.30;46.90;;;;;;4967944;28;20470;-78
2023/08/09 05:07:33;;;;;;;12.77;7.10;;;22.30;46.50;;;;;;4974772;28;20878;-78
2023/08/09 05:10:02;;;;;;;8.13;6.90;;;22.30;46.80;;;;;;4980436;28;20465;-76
2023/08/09 05:12:30;;;;;;;10.00;7.33;;;22.30;46.80;;;;;;4978369;28;20889;-78
2023/08/09 05:14:57;;;;;;;9.10;6.80;;;22.30;46.70;;;;;;4978742;28;20503;-78
2023/08/09 05:17:25;;;;;;;11.03;7.40;;;22.30;46.60;;;;;;4971397;28;20442;-78
2023/08/09 05:19:53;;;;;;;8.87;6.80;;;22.30;46.60;;;;;;4978014;28;20438;-78
2023/08/09 05:22:21;;;;;;;11.10;7.03;;;22.30;46.60;;;;;;4981691;28;20487;-78
2023/08/09 05:24:50;;;;;;;8.50;6.20;;;22.30;46.80;;;;;;4982247;28;20884;-77
2023/08/09 05:27:18;;;;;;;8.40;6.50;;;22.30;46.60;;;;;;4978200;28;20521;-77
2023/08/09 05:29:46;;;;;;;9.87;6.67;;;22.30;46.50;;;;;;4971937;28;20457;-78
2023/08/09 05:32:14;;;;;;;9.53;7.37;;;22.30;46.50;;;;;;4980496;28;20537;-78
2023/08/09 05:34:42;;;;;;;7.60;6.73;;;22.30;46.60;;;;;;4983647;28;20445;-77
2023/08/09 05:37:10;;;;;;;7.10;5.80;;;22.30;46.70;;;;;;4979230;28;20505;-77
2023/08/09 05:39:37;;;;;;;6.60;5.60;;;22.30;46.80;;;;;;4983797;28;20478;-77
2023/08/09 05:42:07;;;;;;;8.80;6.23;;;22.40;46.60;;;;;;4986399;28;20489;-78
2023/08/09 05:44:35;;;;;;;6.47;5.77;;;22.40;46.50;;;;;;4976503;28;20461;-78
2023/08/09 05:47:03;;;;;;;7.70;5.60;;;22.40;46.70;;;;;;4978036;28;20482;-78
2023/08/09 05:49:31;;;;;;;7.40;5.80;;;22.40;46.60;;;;;;4978299;28;20421;-78
2023/08/09 05:51:59;;;;;;;6.67;5.50;;;22.40;46.50;;;;;;4980532;28;20466;-78
2023/08/09 05:54:28;;;;;;;6.70;5.60;;;22.40;46.50;;;;;;4978275;28;20448;-78
2023/08/09 05:56:55;;;;;;;6.90;5.60;;;22.40;46.60;;;;;;4978179;28;20442;-78
2023/08/09 05:59:26;;;;;;;6.93;5.70;;;22.40;46.70;;;;;;4974905;28;20528;-78
2023/08/09 06:01:53;;;;;;;9.13;6.10;;;22.50;46.70;;;;;;4979044;28;20548;-77
2023/08/09 06:04:22;;;;;;;6.50;5.57;;;22.50;46.60;;;;;;4978199;28;20450;-76
2023/08/09 06:06:50;;;;;;;6.50;5.70;;;22.50;46.60;;;;;;4986450;28;20446;-77
2023/08/09 06:09:18;;;;;;;6.47;5.40;;;22.50;46.40;;;;;;4986455;28;20446;-78
2023/08/09 06:11:46;;;;;;;8.43;5.40;;;22.50;46.70;;;;;;4983204;28;20463;-78
2023/08/09 06:14:13;;;;;;;6.77;5.10;;;22.60;46.60;;;;;;4974390;28;20438;-79
2023/08/09 06:16:45;;;;;;;5.60;4.50;;;22.50;46.50;;;;;;4981274;28;20520;-78
2023/08/09 06:19:13;;;;;;;6.90;4.90;;;22.50;46.60;;;;;;4977983;28;20536;-76
2023/08/09 06:21:41;;;;;;;6.10;4.90;;;22.60;46.60;;;;;;4975923;28;20457;-78
2023/08/09 06:24:09;;;;;;;7.03;4.83;;;22.60;47.20;;;;;;4977018;28;20525;-78
2023/08/09 06:26:37;;;;;;;5.37;4.63;;;22.70;46.60;;;;;;4977591;28;20442;-78
2023/08/09 06:29:05;;;;;;;5.50;5.00;;;22.70;46.50;;;;;;4975019;28;20504;-78
2023/08/09 06:31:33;;;;;;;5.37;4.60;;;22.70;46.40;;;;;;4977319;28;20480;-78
2023/08/09 06:34:03;;;;;;;5.60;4.43;;;22.80;46.40;;;;;;4971714;28;20453;-76
2023/08/09 06:36:30;;;;;;;7.30;5.07;;;22.80;46.60;;;;;;4976350;28;20523;-78
2023/08/09 06:38:58;;;;;;;5.63;4.90;;;22.80;46.50;;;;;;4974246;28;20477;-78
2023/08/09 06:41:26;;;;;;;5.67;4.90;;;22.80;46.50;;;;;;4974621;28;20549;-78
2023/08/09 06:43:54;;;;;;;5.67;5.03;;;22.90;46.60;;;;;;4974238;28;20545;-78
2023/08/09 06:46:22;;;;;;;5.13;4.30;;;23.00;46.60;;;;;;4965163;28;20546;-78
2023/08/09 06:48:51;;;;;;;6.00;4.50;;;23.00;46.40;;;;;;4962734;28;20914;-78
2023/08/09 06:51:20;;;;;;;5.03;3.90;;;23.10;46.40;;;;;;4972864;28;20526;-79
2023/08/09 06:53:48;;;;;;;5.30;4.60;;;23.10;46.50;;;;;;4971753;28;20450;-78
2023/08/09 06:56:16;;;;;;;4.23;3.80;;;23.10;46.60;;;;;;4974743;28;20446;-79
2023/08/09 06:58:44;;;;;;;4.43;4.03;;;23.20;46.60;;;;;;4976666;28;20512;-78
2023/08/09 07:01:12;;;;;;;4.67;3.90;;;23.30;46.60;;;;;;4971987;28;20545;-77
2023/08/09 07:03:40;;;;;;;4.80;4.00;;;23.40;46.50;;;;;;4973877;28;20420;-78
2023/08/09 07:06:08;;;;;;;4.30;3.90;;;23.40;46.60;;;;;;4973919;28;20443;-79
2023/08/09 07:08:38;;;;;;;4.47;4.07;;;23.50;46.50;;;;;;4972801;28;20481;-78
2023/08/09 07:11:05;;;;;;;4.60;3.87;;;23.50;46.70;;;;;;4977452;28;20521;-78
2023/08/09 07:13:33;;;;;;;4.80;3.93;;;23.60;46.80;;;;;;4977506;28;20438;-78
2023/08/09 07:16:05;;;;;;;5.23;3.67;;;23.70;46.70;;;;;;4962074;28;20459;-79
2023/08/09 07:18:33;;;;;;;3.63;3.33;;;23.70;47.30;;;;;;4972197;28;20446;-78
2023/08/09 07:21:00;;;;;;;4.37;3.70;;;23.80;47.00;;;;;;4961397;28;20437;-78
2023/08/09 07:23:28;;;;;;;3.47;3.20;;;23.90;46.80;;;;;;4967890;28;20514;-78
2023/08/09 07:26:03;;;;;;;4.10;3.70;;;23.90;46.80;;;;;;4984857;28;20528;-78
2023/08/09 07:28:31;;;;;;;3.70;3.40;;;24.00;46.80;;;;;;4977639;28;20497;-79
2023/08/09 07:30:59;;;;;;;3.97;3.40;;;24.00;46.80;;;;;;4978321;28;20509;-80
2023/08/09 07:33:28;;;;;;;3.73;3.17;;;24.10;46.90;;;;;;4981492;28;20921;-79
2023/08/09 07:35:56;;;;;;;3.83;3.53;;;24.20;46.90;;;;;;4972412;28;20474;-76
2023/08/09 07:38:24;;;;;;;4.83;3.57;;;24.20;47.00;;;;;;4983235;28;21055;-78
2023/08/09 07:40:52;;;;;;;3.27;3.07;;;24.20;47.10;;;;;;4978841;28;20561;-78
2023/08/09 07:43:21;;;;;;;2.90;2.70;;;24.40;47.30;;;;;;4973521;28;20433;-77
2023/08/09 07:45:50;;;;;;;3.40;3.07;;;24.50;47.10;;;;;;4980014;28;20470;-77
2023/08/09 07:48:18;;;;;;;3.43;3.13;;;24.70;47.10;;;;;;4983872;28;20474;-78
2023/08/09 07:50:46;;;;;;;2.90;2.70;;;24.80;46.90;;;;;;4978026;28;20536;-78
2023/08/09 07:53:14;;;;;;;4.60;3.23;;;24.90;47.00;;;;;;4970006;28;20502;-78
2023/08/09 07:55:42;;;;;;;4.70;3.03;;;25.10;47.20;;;;;;4967124;28;20444;-78
2023/08/09 07:58:10;;;;;;;3.50;3.20;;;25.20;47.00;;;;;;4966912;28;20434;-76
2023/08/09 08:00:40;;;;;;;3.40;3.10;;;25.40;47.00;;;;;;4988187;28;20481;-78
2023/08/09 08:03:16;;;;;;;2.93;2.63;;;25.40;47.00;;;;;;4975055;28;20457;-76
2023/08/09 08:05:45;;;;;;;3.20;2.93;;;25.60;47.10;;;;;;4989113;28;20431;-75
2023/08/09 08:08:17;;;;;;;8.30;2.83;;;25.70;46.90;;;;;;4983646;28;20493;-77
2023/08/09 08:10:45;;;;;;;2.70;2.60;;;25.90;46.90;;;;;;4975154;28;20868;-77
2023/08/09 08:13:14;;;;;;;2.67;2.47;;;26.00;46.80;;;;;;4984035;28;20408;-78
2023/08/09 08:15:43;;;;;;;3.47;2.47;;;26.20;47.50;;;;;;4974440;28;20459;-77
2023/08/09 08:18:12;;;;;;;4.97;2.37;;;26.30;46.70;;;;;;4973924;28;20515;-77
2023/08/09 08:20:40;;;;;;;2.60;2.40;;;26.50;46.80;;;;;;4977561;28;20482;-77
2023/08/09 08:23:08;;;;;;;4.90;2.60;;;26.60;46.70;;;;;;4973698;28;20425;-78
2023/08/09 08:25:36;;;;;;;3.93;2.60;;;26.80;46.70;;;;;;4961919;28;20852;-77
2023/08/09 08:28:05;;;;;;;2.53;2.37;;;27.00;46.50;;;;;;4974925;28;20433;-78
2023/08/09 08:30:33;;;;;;;3.90;2.57;;;27.00;46.20;;;;;;4971942;28;20482;-78
2023/08/09 08:33:02;;;;;;;2.33;2.23;;;27.20;46.10;;;;;;4972243;28;20416;-78
2023/08/09 08:35:34;;;;;;;2.50;2.30;;;27.30;46.10;;;;;;4969980;28;20446;-78
2023/08/09 08:38:02;;;;;;;2.57;2.37;;;27.40;46.10;;;;;;4977715;28;20450;-78
2023/08/09 08:40:31;;;;;;;2.50;2.30;;;27.60;46.10;;;;;;4981242;28;20448;-78
2023/08/09 08:42:59;;;;;;;2.67;2.27;;;27.70;46.00;;;;;;4979951;28;20485;-78
2023/08/09 08:45:27;;;;;;;4.07;2.33;;;27.80;45.80;;;;;;4978874;28;20439;-79
2023/08/09 08:47:55;;;;;;;2.10;2.00;;;27.90;45.80;;;;;;4978452;28;20440;-78
2023/08/09 08:50:25;;;;;;;2.10;2.00;;;28.00;45.90;;;;;;4971961;28;20462;-78
2023/08/09 08:52:53;;;;;;;3.27;2.00;;;28.20;45.90;;;;;;4972975;28;20413;-77
2023/08/09 08:55:21;;;;;;;4.57;2.10;;;28.40;45.60;;;;;;4978009;28;20478;-77
2023/08/09 08:57:48;;;;;;;2.10;2.00;;;28.50;45.60;;;;;;4977116;28;20537;-78
2023/08/09 09:00:17;;;;;;;2.30;2.10;;;28.70;45.40;;;;;;4972450;28;20486;-78
2023/08/09 09:02:48;;;;;;;2.30;1.77;;;28.90;45.30;;;;;;4985617;28;20409;-76
2023/08/09 09:05:17;;;;;;;2.60;2.40;;;29.10;45.00;;;;;;4976980;28;20441;-78
2023/08/09 09:07:46;;;;;;;2.10;2.00;;;29.20;44.80;;;;;;4982199;28;20442;-78
2023/08/09 09:10:14;;;;;;;2.43;2.23;;;29.30;44.70;;;;;;4972639;28;20457;-78
2023/08/09 09:12:42;;;;;;;3.50;2.20;;;29.50;44.60;;;;;;4976976;28;20446;-78
2023/08/09 09:15:10;;;;;;;1.97;1.87;;;29.60;44.20;;;;;;4975178;28;20791;-78
2023/08/09 09:17:39;;;;;;;1.90;1.80;;;29.60;44.00;;;;;;4975693;28;20412;-78
2023/08/09 09:20:10;;;;;;;1.70;1.60;;;29.70;44.10;;;;;;4980209;28;20474;-78
2023/08/09 09:22:38;;;;;;;1.63;1.53;;;29.70;44.20;;;;;;4965083;28;20535;-78
2023/08/09 09:25:10;;;;;;;2.10;1.83;;;29.80;44.40;;;;;;4967416;28;20533;-79
2023/08/09 09:27:40;;;;;;;1.80;1.70;;;29.90;44.20;;;;;;4961076;28;20951;-78
2023/08/09 09:30:13;;;;;;;1.50;1.40;;;30.00;43.90;;;;;;4974535;28;20560;-76
2023/08/09 09:32:57;;;;;;;3.67;1.30;;;30.10;44.10;;;;;;4965850;28;20503;-78
2023/08/09 09:35:26;;;;;;;2.00;1.90;;;30.30;43.80;;;;;;4972982;28;20461;-77
2023/08/09 09:37:54;;;;;;;1.53;1.30;;;30.40;43.70;;;;;;4973235;28;20484;-78
2023/08/09 09:40:24;;;;;;;1.47;1.40;;;30.60;43.70;;;;;;4971802;28;20569;-78
2023/08/09 09:42:53;;;;;;;2.73;1.80;;;30.80;43.60;;;;;;4969867;28;21021;-81
2023/08/09 09:45:22;;;;;;;1.87;1.57;;;31.00;43.50;;;;;;4970099;28;20441;-80
2023/08/09 09:47:50;;;;;;;2.73;1.60;;;31.20;43.40;;;;;;4976206;28;20421;-78
2023/08/09 09:50:21;;;;;;;1.30;1.30;;;31.40;43.20;;;;;;4987691;28;20457;-81
2023/08/09 09:52:49;;;;;;;2.80;1.30;;;31.50;42.70;;;;;;4966135;28;20536;-78
2023/08/09 09:55:19;;;;;;;2.07;1.70;;;31.50;42.80;;;;;;4968413;28;20544;-79
2023/08/09 09:57:48;;;;;;;2.50;1.63;;;31.70;42.80;;;;;;4980746;28;20414;-80
2023/08/09 10:00:20;;;;;;;1.40;1.30;;;31.80;42.40;;;;;;4985548;28;20488;-80
2023/08/09 10:02:49;;;;;;;1.20;1.10;;;31.70;42.40;;;;;;4967311;28;20470;-80
2023/08/09 10:05:18;;;;;;;1.30;1.20;;;31.70;42.40;;;;;;4978603;28;20438;-81
2023/08/09 10:07:47;;;;;;;1.57;1.47;;;31.80;42.80;;;;;;4979738;28;20869;-81
2023/08/09 10:10:20;;;;;;;1.30;1.20;;;31.80;42.50;;;;;;4982308;28;20467;-80
2023/08/09 10:12:51;;;;;;;1.57;1.37;;;32.00;42.70;;;;;;4982479;28;20442;-81
2023/08/09 10:15:21;;;;;;;1.47;1.37;;;32.10;42.20;;;;;;4973057;28;20512;-79
2023/08/09 10:17:49;;;;;;;3.67;1.10;;;32.10;42.00;;;;;;4966316;28;20446;-78
2023/08/09 10:20:18;;;;;;;1.63;1.53;;;32.10;41.80;;;;;;4983810;28;20500;-79
2023/08/09 10:22:46;;;;;;;0.90;0.90;;;32.00;42.00;;;;;;4973915;28;20453;-80
2023/08/09 10:25:14;;;;;;;1.40;1.17;;;32.00;41.90;;;;;;4982501;28;20469;-78
2023/08/09 10:27:51;;;;;;;1.37;1.27;;;31.90;41.90;;;;;;4977513;28;20445;-78
2023/08/09 10:30:19;;;;;;;1.33;1.27;;;31.80;41.80;;;;;;4970247;28;20517;-78
2023/08/09 10:32:51;;;;;;;1.40;1.30;;;31.80;41.90;;;;;;4976138;28;20434;-78
2023/08/09 10:35:20;;;;;;;1.30;1.20;;;31.80;42.00;;;;;;4974286;28;20438;-77
2023/08/09 10:37:48;;;;;;;1.10;1.00;;;31.80;41.70;;;;;;4987446;28;20441;-82
2023/08/09 10:40:18;;;;;;;1.53;1.00;;;31.70;41.80;;;;;;4976414;28;20457;-80
2023/08/09 10:42:47;;;;;;;1.33;1.00;;;31.70;41.80;;;;;;4973298;28;20884;-81
2023/08/09 10:45:16;;;;;;;2.33;1.20;;;31.70;42.20;;;;;;4983202;28;20484;-80
2023/08/09 10:47:43;;;;;;;1.00;1.00;;;31.90;42.60;;;;;;4982047;28;20462;-80
2023/08/09 10:50:14;;;;;;;1.20;1.20;;;32.30;42.30;;;;;;4990814;28;20485;-80
2023/08/09 10:52:47;;;;;;;1.13;1.03;;;32.70;42.10;;;;;;4972674;28;20478;-80
2023/08/09 10:55:26;;;;;;;1.30;1.17;;;32.90;41.20;;;;;;4978568;28;20473;-78
2023/08/09 10:57:55;;;;;;;1.10;1.10;;;32.90;40.60;;;;;;4986421;28;20497;-80
2023/08/09 11:00:25;;;;;;;1.23;1.13;;;32.90;40.50;;;;;;4982298;28;20461;-80
2023/08/09 11:02:54;;;;;;;1.07;1.07;;;32.80;40.50;;;;;;4974000;28;20490;-78
2023/08/09 11:05:23;;;;;;;1.17;0.90;;;32.70;40.70;;;;;;4980201;28;20457;-80
2023/08/09 11:07:51;;;;;;;1.20;1.03;;;33.00;41.20;;;;;;4985535;28;20450;-79
2023/08/09 11:10:34;;;;;;;0.90;0.90;;;33.30;40.80;;;;;;4984237;28;20457;-78
2023/08/09 11:13:08;;;;;;;1.10;1.07;;;33.60;40.60;;;;;;4980591;28;20435;-77
2023/08/09 11:15:37;;;;;;;2.30;1.00;;;34.00;40.20;;;;;;4983322;28;20449;-77
2023/08/09 11:18:06;;;;;;;1.20;1.10;;;34.50;39.90;;;;;;4978350;28;20478;-80
2023/08/09 11:20:34;;;;;;;1.20;1.10;;;34.70;38.70;;;;;;4978643;28;20501;-79
2023/08/09 11:23:04;;;;;;;1.20;1.10;;;34.70;38.50;;;;;;4976064;28;20449;-79
2023/08/09 11:25:32;;;;;;;0.90;0.90;;;35.00;38.00;;;;;;4981353;28;20438;-79
2023/08/09 11:28:02;;;;;;;5.33;1.20;;;36.30;38.40;;;;;;4980441;28;20500;-79
2023/08/09 11:30:31;;;;;;;1.00;0.90;;;37.10;36.60;;;;;;4981395;28;20481;-79
2023/08/09 11:33:01;;;;;;;0.90;0.90;;;36.80;35.50;;;;;;4979962;28;20441;-78
2023/08/09 11:35:33;;;;;;;1.37;0.90;;;38.00;34.80;;;;;;4981274;28;20441;-80
2023/08/09 11:38:01;;;;;;;0.90;0.90;;;38.70;33.60;;;;;;4972216;28;20965;-79
2023/08/09 11:40:29;;;;;;;1.10;1.00;;;37.80;33.30;;;;;;4979720;28;20548;-78
2023/08/09 11:43:04;;;;;;;0.93;0.90;;;37.40;35.20;;;;;;4982850;28;20429;-80
2023/08/09 11:45:34;;;;;;;1.90;1.00;;;38.60;33.20;;;;;;4987501;28;20458;-80
2023/08/09 11:48:04;;;;;;;0.77;0.77;;;39.60;33.00;;;;;;4986228;28;20468;-81
2023/08/09 11:50:32;;;;;;;0.80;0.80;;;40.60;32.20;;;;;;4990309;28;20462;-80
2023/08/09 11:53:00;;;;;;;0.70;0.70;;;41.50;31.30;;;;;;4984503;28;20450;-81
2023/08/09 11:55:27;;;;;;;0.87;0.87;;;42.40;30.00;;;;;;4973487;28;20501;-81
2023/08/09 11:57:56;;;;;;;0.67;0.67;;;43.20;29.70;;;;;;4976406;28;20474;-81
2023/08/09 12:00:27;;;;;;;1.27;0.90;;;43.80;28.90;;;;;;4976967;28;20489;-81
2023/08/09 12:02:59;;;;;;;1.02;0.80;;;44.60;28.60;;;;;;4987357;28;20537;-82
2023/08/09 12:05:29;;;;;;;0.80;0.80;;;44.90;28.30;;;;;;4984616;28;20441;-81
2023/08/09 12:08:02;;;;;;;1.50;1.00;;;45.30;28.00;;;;;;4993416;28;20434;-81
2023/08/09 12:10:31;;;;;;;0.70;0.70;;;45.40;27.80;;;;;;4981882;28;20511;-81
2023/08/09 12:12:58;;;;;;;0.60;0.60;;;45.80;27.80;;;;;;4981857;28;20524;-79
2023/08/09 12:15:28;;;;;;;0.73;0.73;;;45.50;27.00;;;;;;4980174;28;20434;-80
2023/08/09 12:17:55;;;;;;;0.77;0.77;;;45.40;27.30;;;;;;4975300;28;20477;-81
2023/08/09 12:20:23;;;;;;;0.70;0.70;;;44.50;27.30;;;;;;4982023;28;20489;-81
2023/08/09 12:22:52;;;;;;;0.90;0.73;;;44.10;28.40;;;;;;4977556;28;20485;-81
2023/08/09 12:25:20;;;;;;;0.87;0.87;;;44.70;28.20;;;;;;4987809;28;20463;-80
2023/08/09 12:27:48;;;;;;;0.80;0.80;;;45.00;28.10;;;;;;4982196;28;20461;-80
2023/08/09 12:30:16;;;;;;;0.90;0.90;;;45.20;27.80;;;;;;4986798;28;20469;-81
2023/08/09 12:32:44;;;;;;;0.93;0.93;;;44.70;27.20;;;;;;4986739;28;20837;-81
2023/08/09 12:35:11;;;;;;;0.70;0.70;;;44.50;27.40;;;;;;4975667;28;20681;-80
2023/08/09 12:37:40;;;;;;;0.90;0.90;;;43.40;27.70;;;;;;4984806;28;20501;-80
2023/08/09 12:40:11;;;;;;;1.00;1.00;;;42.70;28.30;;;;;;4988699;28;20437;-80
2023/08/09 12:42:41;;;;;;;1.37;1.27;;;41.80;29.40;;;;;;4989013;28;20562;-80
2023/08/09 12:45:09;;;;;;;1.07;1.00;;;40.90;29.60;;;;;;4985854;28;20459;-80
2023/08/09 12:47:37;;;;;;;2.10;1.20;;;40.00;30.40;;;;;;4994190;28;20448;-80